sensor_id;sensor_type;location;lat;lon;timestamp;temperature;humidity
5061;DHT22;2549;52.128;21.068;2022-08-19T00:01:35;26.20;99.90
5061;DHT22;2549;52.128;21.068;2022-08-19T00:04:06;26.20;99.90
5061;DHT22;2549;52.128;21.068;2022-08-19T00:06:35;26.20;99.90
5061;DHT22;2549;52.128;21.068;2022-08-19T00:09:04;26.20;99.90
5061;DHT22;2549;52.128;21.068;2022-08-19T00:11:33;26.20;99.90
5061;DHT22;2549;52.128;21.068;2022-08-19T00:14:01;26.20;99.90
5061;DHT22;2549;52.128;21.068;2022-08-19T00:16:28;26.20;99.90
5061;DHT22;2549;52.128;21.068;2022-08-19T00:18:56;26.20;99.90
5061;DHT22;2549;52.128;21.068;2022-08-19T00:21:24;26.20;99.90
5061;DHT22;2549;52.128;21.068;2022-08-19T00:23:51;26.20;99.90
5061;DHT22;2549;52.128;21.068;2022-08-19T00:26:18;26.10;99.90
5061;DHT22;2549;52.128;21.068;2022-08-19T00:28:46;26.10;99.90
5061;DHT22;2549;52.128;21.068;2022-08-19T00:31:13;26.10;99.90
5061;DHT22;2549;52.128;21.068;2022-08-19T00:33:41;26.10;99.90
5061;DHT22;2549;52.128;21.068;2022-08-19T00:36:09;26.10;99.90
5061;DHT22;2549;52.128;21.068;2022-08-19T00:38:37;26.10;99.90
5061;DHT22;2549;52.128;21.068;2022-08-19T00:41:05;26.00;99.90
5061;DHT22;2549;52.128;21.068;2022-08-19T00:43:33;26.00;99.90
5061;DHT22;2549;52.128;21.068;2022-08-19T00:46:00;26.00;99.90
5061;DHT22;2549;52.128;21.068;2022-08-19T00:48:33;26.00;99.90
5061;DHT22;2549;52.128;21.068;2022-08-19T00:51:00;26.00;99.90
5061;DHT22;2549;52.128;21.068;2022-08-19T00:53:31;25.90;99.90
5061;DHT22;2549;52.128;21.068;2022-08-19T00:55:59;25.90;99.90
5061;DHT22;2549;52.128;21.068;2022-08-19T00:58:31;25.90;99.90
5061;DHT22;2549;52.128;21.068;2022-08-19T01:00:59;25.90;99.90
5061;DHT22;2549;52.128;21.068;2022-08-19T01:03:27;25.90;99.90
5061;DHT22;2549;52.128;21.068;2022-08-19T01:05:54;25.90;99.90
5061;DHT22;2549;52.128;21.068;2022-08-19T01:08:21;25.90;99.90
5061;DHT22;2549;52.128;21.068;2022-08-19T01:10:51;25.90;99.90
5061;DHT22;2549;52.128;21.068;2022-08-19T01:13:21;25.80;99.90
5061;DHT22;2549;52.128;21.068;2022-08-19T01:15:54;25.80;99.90
5061;DHT22;2549;52.128;21.068;2022-08-19T01:21:43;25.80;99.90
5061;DHT22;2549;52.128;21.068;2022-08-19T01:24:13;25.70;99.90
5061;DHT22;2549;52.128;21.068;2022-08-19T01:26:42;25.70;99.90
5061;DHT22;2549;52.128;21.068;2022-08-19T01:29:10;25.70;99.90
5061;DHT22;2549;52.128;21.068;2022-08-19T01:31:37;25.70;99.90
5061;DHT22;2549;52.128;21.068;2022-08-19T01:34:06;25.70;99.90
5061;DHT22;2549;52.128;21.068;2022-08-19T01:39:06;25.70;99.90
5061;DHT22;2549;52.128;21.068;2022-08-19T01:41:34;25.60;99.90
5061;DHT22;2549;52.128;21.068;2022-08-19T01:44:01;25.60;99.90
5061;DHT22;2549;52.128;21.068;2022-08-19T01:46:46;25.60;99.90
5061;DHT22;2549;52.128;21.068;2022-08-19T01:49:15;25.60;99.90
5061;DHT22;2549;52.128;21.068;2022-08-19T01:51:42;25.50;99.90
5061;DHT22;2549;52.128;21.068;2022-08-19T01:54:12;25.50;99.90
5061;DHT22;2549;52.128;21.068;2022-08-19T01:56:56;25.50;99.90
5061;DHT22;2549;52.128;21.068;2022-08-19T01:59:24;25.50;99.90
5061;DHT22;2549;52.128;21.068;2022-08-19T02:01:51;25.50;99.90
5061;DHT22;2549;52.128;21.068;2022-08-19T02:04:18;25.50;99.90
5061;DHT22;2549;52.128;21.068;2022-08-19T02:06:45;25.50;99.90
5061;DHT22;2549;52.128;21.068;2022-08-19T02:09:12;25.50;99.90
5061;DHT22;2549;52.128;21.068;2022-08-19T02:11:39;25.40;99.90
5061;DHT22;2549;52.128;21.068;2022-08-19T02:14:07;25.40;99.90
5061;DHT22;2549;52.128;21.068;2022-08-19T02:16:36;25.30;99.90
5061;DHT22;2549;52.128;21.068;2022-08-19T02:19:03;25.30;99.90
5061;DHT22;2549;52.128;21.068;2022-08-19T02:21:30;25.30;99.90
5061;DHT22;2549;52.128;21.068;2022-08-19T02:23:57;25.30;99.90
5061;DHT22;2549;52.128;21.068;2022-08-19T02:26:25;25.20;99.90
5061;DHT22;2549;52.128;21.068;2022-08-19T02:28:53;25.20;99.90
5061;DHT22;2549;52.128;21.068;2022-08-19T02:31:23;25.10;99.90
5061;DHT22;2549;52.128;21.068;2022-08-19T02:33:52;25.10;99.90
5061;DHT22;2549;52.128;21.068;2022-08-19T02:36:23;25.00;99.90
5061;DHT22;2549;52.128;21.068;2022-08-19T02:38:51;25.10;99.90
5061;DHT22;2549;52.128;21.068;2022-08-19T02:41:26;25.10;99.90
5061;DHT22;2549;52.128;21.068;2022-08-19T02:43:58;25.10;99.90
5061;DHT22;2549;52.128;21.068;2022-08-19T02:46:47;25.00;99.90
5061;DHT22;2549;52.128;21.068;2022-08-19T02:49:14;25.00;99.90
5061;DHT22;2549;52.128;21.068;2022-08-19T02:51:44;24.90;99.90
5061;DHT22;2549;52.128;21.068;2022-08-19T02:54:13;24.90;99.90
5061;DHT22;2549;52.128;21.068;2022-08-19T02:56:42;24.90;99.90
5061;DHT22;2549;52.128;21.068;2022-08-19T02:59:09;24.90;99.90
5061;DHT22;2549;52.128;21.068;2022-08-19T03:01:40;24.90;99.90
5061;DHT22;2549;52.128;21.068;2022-08-19T03:04:10;25.00;99.90
5061;DHT22;2549;52.128;21.068;2022-08-19T03:06:40;24.90;99.90
5061;DHT22;2549;52.128;21.068;2022-08-19T03:09:08;24.90;99.90
5061;DHT22;2549;52.128;21.068;2022-08-19T03:11:35;25.00;99.90
5061;DHT22;2549;52.128;21.068;2022-08-19T03:14:04;24.90;99.90
5061;DHT22;2549;52.128;21.068;2022-08-19T03:16:34;25.00;99.90
5061;DHT22;2549;52.128;21.068;2022-08-19T03:19:02;25.00;99.90
5061;DHT22;2549;52.128;21.068;2022-08-19T03:21:32;25.00;99.90
5061;DHT22;2549;52.128;21.068;2022-08-19T03:24:01;24.90;99.90
5061;DHT22;2549;52.128;21.068;2022-08-19T03:26:29;24.90;99.90
5061;DHT22;2549;52.128;21.068;2022-08-19T03:28:56;24.90;99.90
5061;DHT22;2549;52.128;21.068;2022-08-19T03:31:26;24.90;99.90
5061;DHT22;2549;52.128;21.068;2022-08-19T03:34:15;24.90;99.90
5061;DHT22;2549;52.128;21.068;2022-08-19T03:36:44;24.90;99.90
5061;DHT22;2549;52.128;21.068;2022-08-19T03:39:13;24.90;99.90
5061;DHT22;2549;52.128;21.068;2022-08-19T03:41:41;24.90;99.90
5061;DHT22;2549;52.128;21.068;2022-08-19T03:44:17;24.90;99.90
5061;DHT22;2549;52.128;21.068;2022-08-19T03:46:47;24.90;99.90
5061;DHT22;2549;52.128;21.068;2022-08-19T03:49:14;24.90;99.90
5061;DHT22;2549;52.128;21.068;2022-08-19T03:51:45;24.90;99.90
5061;DHT22;2549;52.128;21.068;2022-08-19T03:54:15;24.90;99.90
5061;DHT22;2549;52.128;21.068;2022-08-19T03:56:43;24.90;99.90
5061;DHT22;2549;52.128;21.068;2022-08-19T03:59:15;24.90;99.90
5061;DHT22;2549;52.128;21.068;2022-08-19T04:01:42;24.80;99.90
5061;DHT22;2549;52.128;21.068;2022-08-19T04:04:09;24.80;99.90
5061;DHT22;2549;52.128;21.068;2022-08-19T04:06:37;24.80;99.90
5061;DHT22;2549;52.128;21.068;2022-08-19T04:09:08;24.80;99.90
5061;DHT22;2549;52.128;21.068;2022-08-19T04:11:48;24.70;99.90
5061;DHT22;2549;52.128;21.068;2022-08-19T04:14:19;24.70;99.90
5061;DHT22;2549;52.128;21.068;2022-08-19T04:16:48;24.80;99.90
5061;DHT22;2549;52.128;21.068;2022-08-19T04:19:16;24.70;99.90
5061;DHT22;2549;52.128;21.068;2022-08-19T04:21:45;24.70;99.90
5061;DHT22;2549;52.128;21.068;2022-08-19T04:24:12;24.70;99.90
5061;DHT22;2549;52.128;21.068;2022-08-19T04:26:39;24.70;99.90
5061;DHT22;2549;52.128;21.068;2022-08-19T04:29:12;24.70;99.90
5061;DHT22;2549;52.128;21.068;2022-08-19T04:31:40;24.80;99.90
5061;DHT22;2549;52.128;21.068;2022-08-19T04:34:10;24.80;99.90
5061;DHT22;2549;52.128;21.068;2022-08-19T04:36:41;24.80;99.90
5061;DHT22;2549;52.128;21.068;2022-08-19T04:39:12;24.80;99.90
5061;DHT22;2549;52.128;21.068;2022-08-19T04:41:39;24.80;99.90
5061;DHT22;2549;52.128;21.068;2022-08-19T04:44:24;24.90;99.90
5061;DHT22;2549;52.128;21.068;2022-08-19T04:46:52;24.90;99.90
5061;DHT22;2549;52.128;21.068;2022-08-19T04:49:21;24.90;99.90
5061;DHT22;2549;52.128;21.068;2022-08-19T04:51:52;25.00;99.90
5061;DHT22;2549;52.128;21.068;2022-08-19T04:54:22;24.90;99.90
5061;DHT22;2549;52.128;21.068;2022-08-19T04:57:06;25.00;99.90
5061;DHT22;2549;52.128;21.068;2022-08-19T04:59:34;25.00;99.90
5061;DHT22;2549;52.128;21.068;2022-08-19T05:02:02;25.00;99.90
5061;DHT22;2549;52.128;21.068;2022-08-19T05:04:29;25.10;99.90
5061;DHT22;2549;52.128;21.068;2022-08-19T05:06:59;25.10;99.90
5061;DHT22;2549;52.128;21.068;2022-08-19T05:09:28;25.10;99.90
5061;DHT22;2549;52.128;21.068;2022-08-19T05:12:16;25.10;99.90
5061;DHT22;2549;52.128;21.068;2022-08-19T05:14:44;25.20;99.90
5061;DHT22;2549;52.128;21.068;2022-08-19T05:17:11;25.20;99.90
5061;DHT22;2549;52.128;21.068;2022-08-19T05:19:54;25.20;99.90
5061;DHT22;2549;52.128;21.068;2022-08-19T05:22:40;25.20;99.90
5061;DHT22;2549;52.128;21.068;2022-08-19T05:25:14;25.30;99.90
5061;DHT22;2549;52.128;21.068;2022-08-19T05:27:42;25.30;99.90
5061;DHT22;2549;52.128;21.068;2022-08-19T05:30:10;25.30;99.90
5061;DHT22;2549;52.128;21.068;2022-08-19T05:32:38;25.40;99.90
5061;DHT22;2549;52.128;21.068;2022-08-19T05:35:05;25.40;99.90
5061;DHT22;2549;52.128;21.068;2022-08-19T05:37:32;25.40;99.90
5061;DHT22;2549;52.128;21.068;2022-08-19T05:39:59;25.40;99.90
5061;DHT22;2549;52.128;21.068;2022-08-19T05:42:26;25.40;99.90
5061;DHT22;2549;52.128;21.068;2022-08-19T05:44:53;25.50;99.90
5061;DHT22;2549;52.128;21.068;2022-08-19T05:47:20;25.50;99.90
5061;DHT22;2549;52.128;21.068;2022-08-19T05:49:48;25.50;99.90
5061;DHT22;2549;52.128;21.068;2022-08-19T05:52:17;25.50;99.90
5061;DHT22;2549;52.128;21.068;2022-08-19T05:54:45;25.50;99.90
5061;DHT22;2549;52.128;21.068;2022-08-19T05:57:18;25.50;99.90
5061;DHT22;2549;52.128;21.068;2022-08-19T05:59:45;25.50;99.90
5061;DHT22;2549;52.128;21.068;2022-08-19T06:02:18;25.50;99.90
5061;DHT22;2549;52.128;21.068;2022-08-19T06:04:45;25.60;99.90
5061;DHT22;2549;52.128;21.068;2022-08-19T06:07:12;25.60;99.90
5061;DHT22;2549;52.128;21.068;2022-08-19T06:09:40;25.60;99.90
5061;DHT22;2549;52.128;21.068;2022-08-19T06:12:26;25.60;99.90
5061;DHT22;2549;52.128;21.068;2022-08-19T06:14:59;25.50;99.90
5061;DHT22;2549;52.128;21.068;2022-08-19T06:17:31;25.50;99.90
5061;DHT22;2549;52.128;21.068;2022-08-19T06:19:58;25.50;99.90
5061;DHT22;2549;52.128;21.068;2022-08-19T06:22:26;25.50;99.90
5061;DHT22;2549;52.128;21.068;2022-08-19T06:24:54;25.60;99.90
5061;DHT22;2549;52.128;21.068;2022-08-19T06:27:22;25.60;99.90
5061;DHT22;2549;52.128;21.068;2022-08-19T06:29:49;25.70;99.90
5061;DHT22;2549;52.128;21.068;2022-08-19T06:32:17;25.70;99.90
5061;DHT22;2549;52.128;21.068;2022-08-19T06:34:45;25.70;99.90
5061;DHT22;2549;52.128;21.068;2022-08-19T06:37:13;25.70;99.90
5061;DHT22;2549;52.128;21.068;2022-08-19T06:39:41;25.80;99.90
5061;DHT22;2549;52.128;21.068;2022-08-19T06:42:09;25.80;99.90
5061;DHT22;2549;52.128;21.068;2022-08-19T06:44:39;25.80;99.90
5061;DHT22;2549;52.128;21.068;2022-08-19T06:47:11;25.80;99.90
5061;DHT22;2549;52.128;21.068;2022-08-19T06:49:48;25.80;99.90
5061;DHT22;2549;52.128;21.068;2022-08-19T06:52:16;25.90;99.90
5061;DHT22;2549;52.128;21.068;2022-08-19T06:54:43;25.90;99.90
5061;DHT22;2549;52.128;21.068;2022-08-19T06:57:23;26.00;99.90
5061;DHT22;2549;52.128;21.068;2022-08-19T06:59:51;26.00;99.90
5061;DHT22;2549;52.128;21.068;2022-08-19T07:02:19;26.00;99.90
5061;DHT22;2549;52.128;21.068;2022-08-19T07:04:47;26.00;99.90
5061;DHT22;2549;52.128;21.068;2022-08-19T07:07:19;26.00;99.90
5061;DHT22;2549;52.128;21.068;2022-08-19T07:09:50;26.10;99.90
5061;DHT22;2549;52.128;21.068;2022-08-19T07:12:30;26.10;99.90
5061;DHT22;2549;52.128;21.068;2022-08-19T07:15:03;26.10;99.90
5061;DHT22;2549;52.128;21.068;2022-08-19T07:17:31;26.10;99.90
5061;DHT22;2549;52.128;21.068;2022-08-19T07:20:00;26.20;99.90
5061;DHT22;2549;52.128;21.068;2022-08-19T07:22:39;26.20;99.90
5061;DHT22;2549;52.128;21.068;2022-08-19T07:25:08;26.20;99.90
5061;DHT22;2549;52.128;21.068;2022-08-19T07:27:36;26.30;99.90
5061;DHT22;2549;52.128;21.068;2022-08-19T07:30:07;26.30;99.90
5061;DHT22;2549;52.128;21.068;2022-08-19T07:32:38;26.40;99.90
5061;DHT22;2549;52.128;21.068;2022-08-19T07:35:05;26.40;99.90
5061;DHT22;2549;52.128;21.068;2022-08-19T07:37:32;26.40;99.90
5061;DHT22;2549;52.128;21.068;2022-08-19T07:40:06;26.40;99.90
5061;DHT22;2549;52.128;21.068;2022-08-19T07:42:33;26.50;99.90
5061;DHT22;2549;52.128;21.068;2022-08-19T07:45:00;26.50;99.90
5061;DHT22;2549;52.128;21.068;2022-08-19T07:47:27;26.60;99.90
5061;DHT22;2549;52.128;21.068;2022-08-19T07:50:15;26.60;99.90
5061;DHT22;2549;52.128;21.068;2022-08-19T07:52:42;26.70;99.90
5061;DHT22;2549;52.128;21.068;2022-08-19T07:55:17;26.70;99.90
5061;DHT22;2549;52.128;21.068;2022-08-19T07:58:04;26.80;99.90
5061;DHT22;2549;52.128;21.068;2022-08-19T08:00:31;26.90;99.90
5061;DHT22;2549;52.128;21.068;2022-08-19T08:02:58;26.90;99.90
5061;DHT22;2549;52.128;21.068;2022-08-19T08:05:25;27.00;99.90
5061;DHT22;2549;52.128;21.068;2022-08-19T08:08:12;27.00;99.90
5061;DHT22;2549;52.128;21.068;2022-08-19T08:10:58;27.10;99.90
5061;DHT22;2549;52.128;21.068;2022-08-19T08:13:25;27.10;99.90
5061;DHT22;2549;52.128;21.068;2022-08-19T08:15:53;27.20;99.90
5061;DHT22;2549;52.128;21.068;2022-08-19T08:18:22;27.20;99.90
5061;DHT22;2549;52.128;21.068;2022-08-19T08:20:54;27.20;99.90
5061;DHT22;2549;52.128;21.068;2022-08-19T08:23:22;27.30;99.90
5061;DHT22;2549;52.128;21.068;2022-08-19T08:25:54;27.30;99.90
5061;DHT22;2549;52.128;21.068;2022-08-19T08:28:23;27.40;99.90
5061;DHT22;2549;52.128;21.068;2022-08-19T08:30:51;27.40;99.90
5061;DHT22;2549;52.128;21.068;2022-08-19T08:33:23;27.50;99.90
5061;DHT22;2549;52.128;21.068;2022-08-19T08:35:58;27.50;99.90
5061;DHT22;2549;52.128;21.068;2022-08-19T08:38:25;27.50;99.90
5061;DHT22;2549;52.128;21.068;2022-08-19T08:40:59;27.60;99.90
5061;DHT22;2549;52.128;21.068;2022-08-19T08:43:38;27.60;99.90
5061;DHT22;2549;52.128;21.068;2022-08-19T08:48:48;27.60;99.90
5061;DHT22;2549;52.128;21.068;2022-08-19T08:51:24;27.70;99.90
5061;DHT22;2549;52.128;21.068;2022-08-19T08:54:02;27.80;99.90
5061;DHT22;2549;52.128;21.068;2022-08-19T08:56:31;27.90;99.90
5061;DHT22;2549;52.128;21.068;2022-08-19T08:59:07;27.90;99.90
5061;DHT22;2549;52.128;21.068;2022-08-19T09:01:36;27.90;99.90
5061;DHT22;2549;52.128;21.068;2022-08-19T09:04:05;28.00;99.90
5061;DHT22;2549;52.128;21.068;2022-08-19T09:06:56;28.00;99.90
5061;DHT22;2549;52.128;21.068;2022-08-19T09:09:52;28.10;99.90
5061;DHT22;2549;52.128;21.068;2022-08-19T09:15:11;28.20;99.90
5061;DHT22;2549;52.128;21.068;2022-08-19T09:17:38;28.30;99.90
5061;DHT22;2549;52.128;21.068;2022-08-19T09:22:37;28.40;99.90
5061;DHT22;2549;52.128;21.068;2022-08-19T09:25:07;28.40;99.90
5061;DHT22;2549;52.128;21.068;2022-08-19T09:27:36;28.40;99.90
5061;DHT22;2549;52.128;21.068;2022-08-19T09:30:27;28.40;99.90
5061;DHT22;2549;52.128;21.068;2022-08-19T09:32:57;28.50;99.90
5061;DHT22;2549;52.128;21.068;2022-08-19T09:35:27;28.60;99.90
5061;DHT22;2549;52.128;21.068;2022-08-19T09:37:56;28.60;99.90
5061;DHT22;2549;52.128;21.068;2022-08-19T09:40:27;28.70;99.90
5061;DHT22;2549;52.128;21.068;2022-08-19T09:42:56;28.70;99.90
5061;DHT22;2549;52.128;21.068;2022-08-19T09:45:24;28.80;99.90
5061;DHT22;2549;52.128;21.068;2022-08-19T09:47:51;28.80;99.90
5061;DHT22;2549;52.128;21.068;2022-08-19T09:50:22;28.90;99.90
5061;DHT22;2549;52.128;21.068;2022-08-19T09:52:50;28.90;99.90
5061;DHT22;2549;52.128;21.068;2022-08-19T09:55:20;28.90;99.90
5061;DHT22;2549;52.128;21.068;2022-08-19T09:57:49;29.00;99.90
5061;DHT22;2549;52.128;21.068;2022-08-19T10:00:16;29.00;99.90
5061;DHT22;2549;52.128;21.068;2022-08-19T10:02:43;29.10;99.90
5061;DHT22;2549;52.128;21.068;2022-08-19T10:05:11;29.10;99.90
5061;DHT22;2549;52.128;21.068;2022-08-19T10:07:56;29.10;99.90
5061;DHT22;2549;52.128;21.068;2022-08-19T10:10:24;29.10;99.90
5061;DHT22;2549;52.128;21.068;2022-08-19T10:12:52;29.00;99.90
5061;DHT22;2549;52.128;21.068;2022-08-19T10:15:19;29.10;99.90
5061;DHT22;2549;52.128;21.068;2022-08-19T10:17:55;29.10;99.90
5061;DHT22;2549;52.128;21.068;2022-08-19T10:20:24;29.10;99.90
5061;DHT22;2549;52.128;21.068;2022-08-19T10:22:51;29.20;99.90
5061;DHT22;2549;52.128;21.068;2022-08-19T10:25:19;29.30;99.90
5061;DHT22;2549;52.128;21.068;2022-08-19T10:27:46;29.30;99.90
5061;DHT22;2549;52.128;21.068;2022-08-19T10:30:17;29.30;99.90
5061;DHT22;2549;52.128;21.068;2022-08-19T10:32:45;29.30;99.90
5061;DHT22;2549;52.128;21.068;2022-08-19T10:35:13;29.30;99.90
5061;DHT22;2549;52.128;21.068;2022-08-19T10:37:47;29.30;99.90
5061;DHT22;2549;52.128;21.068;2022-08-19T10:40:23;29.30;99.60
5061;DHT22;2549;52.128;21.068;2022-08-19T10:42:50;29.40;99.70
5061;DHT22;2549;52.128;21.068;2022-08-19T10:45:17;29.50;99.80
5061;DHT22;2549;52.128;21.068;2022-08-19T10:47:44;29.50;99.80
5061;DHT22;2549;52.128;21.068;2022-08-19T10:50:13;29.50;99.70
5061;DHT22;2549;52.128;21.068;2022-08-19T10:53:04;29.60;99.60
5061;DHT22;2549;52.128;21.068;2022-08-19T10:55:35;29.60;99.90
5061;DHT22;2549;52.128;21.068;2022-08-19T10:58:22;29.60;99.90
5061;DHT22;2549;52.128;21.068;2022-08-19T11:00:54;29.60;99.90
5061;DHT22;2549;52.128;21.068;2022-08-19T11:03:22;29.60;99.90
5061;DHT22;2549;52.128;21.068;2022-08-19T11:06:04;29.70;99.90
5061;DHT22;2549;52.128;21.068;2022-08-19T11:08:32;29.70;99.60
5061;DHT22;2549;52.128;21.068;2022-08-19T11:11:02;29.70;99.90
5061;DHT22;2549;52.128;21.068;2022-08-19T11:13:32;29.80;99.90
5061;DHT22;2549;52.128;21.068;2022-08-19T11:16:09;29.80;99.90
5061;DHT22;2549;52.128;21.068;2022-08-19T11:18:47;29.80;99.90
5061;DHT22;2549;52.128;21.068;2022-08-19T11:21:27;29.80;99.70
5061;DHT22;2549;52.128;21.068;2022-08-19T11:23:57;29.90;99.40
5061;DHT22;2549;52.128;21.068;2022-08-19T11:26:25;29.90;99.60
5061;DHT22;2549;52.128;21.068;2022-08-19T11:28:52;29.90;99.70
5061;DHT22;2549;52.128;21.068;2022-08-19T11:31:23;29.90;99.40
5061;DHT22;2549;52.128;21.068;2022-08-19T11:33:57;30.00;99.00
5061;DHT22;2549;52.128;21.068;2022-08-19T11:36:24;30.00;98.70
5061;DHT22;2549;52.128;21.068;2022-08-19T11:38:51;30.00;98.70
5061;DHT22;2549;52.128;21.068;2022-08-19T11:41:21;30.10;98.50
5061;DHT22;2549;52.128;21.068;2022-08-19T11:43:50;30.10;98.40
5061;DHT22;2549;52.128;21.068;2022-08-19T11:46:18;30.10;98.60
5061;DHT22;2549;52.128;21.068;2022-08-19T11:48:45;30.10;98.50
5061;DHT22;2549;52.128;21.068;2022-08-19T11:51:16;30.20;98.30
5061;DHT22;2549;52.128;21.068;2022-08-19T11:53:45;30.20;98.00
5061;DHT22;2549;52.128;21.068;2022-08-19T11:56:13;30.30;98.40
5061;DHT22;2549;52.128;21.068;2022-08-19T11:58:40;30.40;98.60
5061;DHT22;2549;52.128;21.068;2022-08-19T12:01:11;30.40;98.40
5061;DHT22;2549;52.128;21.068;2022-08-19T12:03:39;30.40;98.00
5061;DHT22;2549;52.128;21.068;2022-08-19T12:06:11;30.40;98.10
5061;DHT22;2549;52.128;21.068;2022-08-19T12:08:42;30.40;98.00
5061;DHT22;2549;52.128;21.068;2022-08-19T12:11:11;30.50;97.80
5061;DHT22;2549;52.128;21.068;2022-08-19T12:13:39;30.50;97.90
5061;DHT22;2549;52.128;21.068;2022-08-19T12:16:19;30.50;97.70
5061;DHT22;2549;52.128;21.068;2022-08-19T12:18:47;30.50;97.30
5061;DHT22;2549;52.128;21.068;2022-08-19T12:21:16;30.50;97.10
5061;DHT22;2549;52.128;21.068;2022-08-19T12:23:44;30.60;97.20
5061;DHT22;2549;52.128;21.068;2022-08-19T12:26:12;30.60;97.10
5061;DHT22;2549;52.128;21.068;2022-08-19T12:28:39;30.60;96.90
5061;DHT22;2549;52.128;21.068;2022-08-19T12:31:06;30.60;96.80
5061;DHT22;2549;52.128;21.068;2022-08-19T12:33:33;30.70;96.80
5061;DHT22;2549;52.128;21.068;2022-08-19T12:36:02;30.70;96.50
5061;DHT22;2549;52.128;21.068;2022-08-19T12:38:29;30.80;96.50
5061;DHT22;2549;52.128;21.068;2022-08-19T12:40:56;30.90;96.20
5061;DHT22;2549;52.128;21.068;2022-08-19T12:43:26;30.90;95.70
5061;DHT22;2549;52.128;21.068;2022-08-19T12:45:53;31.00;95.20
5061;DHT22;2549;52.128;21.068;2022-08-19T12:48:22;31.00;95.50
5061;DHT22;2549;52.128;21.068;2022-08-19T12:51:05;31.10;95.60
5061;DHT22;2549;52.128;21.068;2022-08-19T12:53:32;31.10;95.60
5061;DHT22;2549;52.128;21.068;2022-08-19T12:56:04;31.10;95.50
5061;DHT22;2549;52.128;21.068;2022-08-19T12:58:35;31.10;95.60
5061;DHT22;2549;52.128;21.068;2022-08-19T13:01:13;31.10;95.30
5061;DHT22;2549;52.128;21.068;2022-08-19T13:03:45;31.10;94.60
5061;DHT22;2549;52.128;21.068;2022-08-19T13:06:12;31.20;94.90
5061;DHT22;2549;52.128;21.068;2022-08-19T13:08:45;31.20;95.10
5061;DHT22;2549;52.128;21.068;2022-08-19T13:11:15;31.30;94.90
5061;DHT22;2549;52.128;21.068;2022-08-19T13:13:45;31.30;94.60
5061;DHT22;2549;52.128;21.068;2022-08-19T13:16:14;31.30;94.50
5061;DHT22;2549;52.128;21.068;2022-08-19T13:18:44;31.30;94.70
5061;DHT22;2549;52.128;21.068;2022-08-19T13:21:14;31.40;94.50
5061;DHT22;2549;52.128;21.068;2022-08-19T13:23:41;31.30;94.30
5061;DHT22;2549;52.128;21.068;2022-08-19T13:26:09;31.40;94.50
5061;DHT22;2549;52.128;21.068;2022-08-19T13:28:37;31.40;94.40
5061;DHT22;2549;52.128;21.068;2022-08-19T13:31:26;31.40;94.50
5061;DHT22;2549;52.128;21.068;2022-08-19T13:34:12;31.40;93.80
5061;DHT22;2549;52.128;21.068;2022-08-19T13:36:39;31.50;93.90
5061;DHT22;2549;52.128;21.068;2022-08-19T13:39:07;31.50;93.50
5061;DHT22;2549;52.128;21.068;2022-08-19T13:41:36;31.50;93.20
5061;DHT22;2549;52.128;21.068;2022-08-19T13:44:04;31.60;93.30
5061;DHT22;2549;52.128;21.068;2022-08-19T13:46:32;31.60;93.30
5061;DHT22;2549;52.128;21.068;2022-08-19T13:48:59;31.60;93.30
5061;DHT22;2549;52.128;21.068;2022-08-19T13:51:26;31.60;93.60
5061;DHT22;2549;52.128;21.068;2022-08-19T13:53:53;31.60;93.60
5061;DHT22;2549;52.128;21.068;2022-08-19T13:56:21;31.70;92.60
5061;DHT22;2549;52.128;21.068;2022-08-19T13:58:52;31.80;92.50
5061;DHT22;2549;52.128;21.068;2022-08-19T14:01:21;31.90;92.00
5061;DHT22;2549;52.128;21.068;2022-08-19T14:03:50;32.10;92.10
5061;DHT22;2549;52.128;21.068;2022-08-19T14:06:17;32.10;91.70
5061;DHT22;2549;52.128;21.068;2022-08-19T14:08:45;32.30;91.90
5061;DHT22;2549;52.128;21.068;2022-08-19T14:11:12;32.30;91.90
5061;DHT22;2549;52.128;21.068;2022-08-19T14:13:39;32.30;91.60
5061;DHT22;2549;52.128;21.068;2022-08-19T14:16:15;32.40;91.40
5061;DHT22;2549;52.128;21.068;2022-08-19T14:18:43;32.50;90.80
5061;DHT22;2549;52.128;21.068;2022-08-19T14:21:15;32.50;91.00
5061;DHT22;2549;52.128;21.068;2022-08-19T14:23:44;32.40;90.70
5061;DHT22;2549;52.128;21.068;2022-08-19T14:26:14;32.50;90.70
5061;DHT22;2549;52.128;21.068;2022-08-19T14:28:42;32.50;90.80
5061;DHT22;2549;52.128;21.068;2022-08-19T14:31:14;32.50;90.50
5061;DHT22;2549;52.128;21.068;2022-08-19T14:33:46;32.50;90.60
5061;DHT22;2549;52.128;21.068;2022-08-19T14:36:14;32.40;90.30
5061;DHT22;2549;52.128;21.068;2022-08-19T14:38:41;32.40;90.50
5061;DHT22;2549;52.128;21.068;2022-08-19T14:41:20;32.30;90.40
5061;DHT22;2549;52.128;21.068;2022-08-19T14:43:49;32.30;90.30
5061;DHT22;2549;52.128;21.068;2022-08-19T14:46:24;32.20;90.50
5061;DHT22;2549;52.128;21.068;2022-08-19T14:48:54;32.30;90.00
5061;DHT22;2549;52.128;21.068;2022-08-19T14:51:23;32.30;89.90
5061;DHT22;2549;52.128;21.068;2022-08-19T14:53:51;32.30;89.40
5061;DHT22;2549;52.128;21.068;2022-08-19T14:56:21;32.30;90.00
5061;DHT22;2549;52.128;21.068;2022-08-19T14:58:49;32.30;90.00
5061;DHT22;2549;52.128;21.068;2022-08-19T15:01:20;32.30;90.40
5061;DHT22;2549;52.128;21.068;2022-08-19T15:03:49;32.30;90.10
5061;DHT22;2549;52.128;21.068;2022-08-19T15:06:16;32.20;89.80
5061;DHT22;2549;52.128;21.068;2022-08-19T15:08:43;32.30;90.10
5061;DHT22;2549;52.128;21.068;2022-08-19T15:11:15;32.30;90.00
5061;DHT22;2549;52.128;21.068;2022-08-19T15:13:44;32.20;89.90
5061;DHT22;2549;52.128;21.068;2022-08-19T15:16:13;32.30;90.10
5061;DHT22;2549;52.128;21.068;2022-08-19T15:18:45;32.20;90.10
5061;DHT22;2549;52.128;21.068;2022-08-19T15:21:14;32.20;90.00
5061;DHT22;2549;52.128;21.068;2022-08-19T15:23:54;32.20;90.10
5061;DHT22;2549;52.128;21.068;2022-08-19T15:26:21;32.20;90.00
5061;DHT22;2549;52.128;21.068;2022-08-19T15:28:48;32.20;90.20
5061;DHT22;2549;52.128;21.068;2022-08-19T15:31:18;32.20;90.10
5061;DHT22;2549;52.128;21.068;2022-08-19T15:33:55;32.30;90.50
5061;DHT22;2549;52.128;21.068;2022-08-19T15:36:24;32.20;90.10
5061;DHT22;2549;52.128;21.068;2022-08-19T15:38:51;32.20;90.10
5061;DHT22;2549;52.128;21.068;2022-08-19T15:41:22;32.20;90.50
5061;DHT22;2549;52.128;21.068;2022-08-19T15:43:56;32.20;90.50
5061;DHT22;2549;52.128;21.068;2022-08-19T15:46:27;32.20;90.40
5061;DHT22;2549;52.128;21.068;2022-08-19T15:48:55;32.20;90.60
5061;DHT22;2549;52.128;21.068;2022-08-19T15:51:27;32.10;90.40
5061;DHT22;2549;52.128;21.068;2022-08-19T15:53:57;32.20;90.30
5061;DHT22;2549;52.128;21.068;2022-08-19T15:56:24;32.10;91.00
5061;DHT22;2549;52.128;21.068;2022-08-19T15:58:53;32.10;90.60
5061;DHT22;2549;52.128;21.068;2022-08-19T16:01:38;32.10;90.50
5061;DHT22;2549;52.128;21.068;2022-08-19T16:04:14;32.10;90.70
5061;DHT22;2549;52.128;21.068;2022-08-19T16:07:00;32.10;90.70
5061;DHT22;2549;52.128;21.068;2022-08-19T16:09:29;32.00;90.30
5061;DHT22;2549;52.128;21.068;2022-08-19T16:12:01;32.00;90.50
5061;DHT22;2549;52.128;21.068;2022-08-19T16:14:33;32.00;90.90
5061;DHT22;2549;52.128;21.068;2022-08-19T16:17:01;31.90;90.90
5061;DHT22;2549;52.128;21.068;2022-08-19T16:19:28;31.90;90.70